Ouray, CO

4:24 PM MDT on August 30, 2014 (GMT -0600)
Ouray | Change Station
CLOSE
Current Station
Personal Weather Station
Location: Ouray, CO
Elevation: 7736 ft
Nearby Weather Stations

Elev 7736 ft 38.03 °N, 107.67 °W | Updated 4 seconds ago

Mostly Cloudy
Mostly Cloudy
72.5 °F
Feels Like 77 °F
N
0.0
Wind Variable Wind from SSW
Gusts 4.0 mph

Today
High -- | Low -- °F
--% Chance of Precip.
Yesterday
High -- | Low -- °F
Precip. -- in
6:38 AM 7:43 PM
Waxing Crescent, 25% visible
Pressure 30.31 in
Visibility 10.0 miles
Clouds Overcast 11000 ft
Heat Index 77 °F
Dew Point 42 °F
Humidity 33%
Rainfall 0.00 in
Snow Depth 5 in
UV 2 out of 12
Pollen 10.20 out of 12
Air Quality Not available.
Flu Activity Not available.
METAR KTEX 302216Z AUTO 24014G20KT 10SM OVC110 21/02 A3031 RMK AO2

More Conditions Fewer Conditions

Pressure 30.31 in
Visibility 10.0 miles
Clouds Overcast 11000 ft
Heat Index 77 °F
Dew Point 42 °F
Humidity 33%
Rainfall 0.00 in
Snow Depth 5 in
UV 2 out of 12
Pollen 10.20 out of 12
Air Quality Not available.
Flu Activity Not available.
METAR KTEX 302216Z AUTO 24014G20KT 10SM OVC110 21/02 A3031 RMK AO2

More Conditions Fewer Conditions

10-Day Weather Forecast

Almanac

Astronomy

Aug. 30, 2014 Rise Set
Actual Time 6:38 AM MDT 7:43 PM MDT
Civil Twilight 6:11 AM MDT 8:10 PM MDT
Nautical Twilight 5:39 AM MDT 8:42 PM MDT
Astronomical Twilight 5:06 AM MDT 9:15 PM MDT
Moon 11:24 AM MDT 10:24 PM MDT
Length of Visible Light 13h 58m
Length of Day
13h 04m
Tomorrow will be 2m 19s shorter.
Waxing Crescent, 25% of the Moon is Illuminated
Today
Waxing Crescent
Sep 2
First Quarter
Sep 8
Full
Sep 15
Last Quarter
Sep 24
New

Today's Extremes

State Highs State Lows

Community

WunderPhotos

Upload Photos

1,748,657 photos uploaded!

WunderBlogs® & News

Nearby

Snow Depth

Station Depth Elevation
Idarado 5 in 9800 ft
El Diente Peak 0 in 10200 ft
Lone Cone 7 in 9600 ft
Vallecito 0 in 10880 ft
Upper San Juan 0 in 10130 ft

Earthquake Activity

City Distance Mag. Time & Date
No recent earthquake activity has been reported nearby.
Minimum magnitude displayed is 2.5.

Coastal Water Temperatures

Place Temperature
No Stations Reporting

Nearby Weather Stations